Time;durP1;ratioP1;P1;durP2;ratioP2;P2;SDS_P1;SDS_P2;PMS_P1;PMS_P2;Temp;Humidity;BMP_temperature;BMP_pressure;BME280_temperature;BME280_humidity;BME280_pressure;Samples;Min_cycle;Max_cycle;Signal;HPM_P1;HPM_P2
2024/02/28 00:00:01;;;;;;;11.00;7.70;;;7.80;94.80;;;;;;5071633;28;20238;-61
2024/02/28 00:02:27;;;;;;;12.30;8.90;;;7.70;94.50;;;;;;5071541;28;20411;-62
2024/02/28 00:04:53;;;;;;;12.98;8.93;;;7.70;94.30;;;;;;5071724;28;20603;-61
2024/02/28 00:07:19;;;;;;;16.30;8.97;;;7.60;94.20;;;;;;5071188;28;20284;-62
2024/02/28 00:09:44;;;;;;;12.50;8.83;;;7.50;94.40;;;;;;5071506;28;20696;-61
2024/02/28 00:12:10;;;;;;;14.17;8.80;;;7.40;94.20;;;;;;5071446;28;20256;-61
2024/02/28 00:14:35;;;;;;;10.07;6.63;;;7.40;94.40;;;;;;5071428;28;20634;-61
2024/02/28 00:17:01;;;;;;;11.20;6.73;;;7.30;94.60;;;;;;5071360;28;20207;-62
2024/02/28 00:19:27;;;;;;;11.30;8.23;;;7.40;94.70;;;;;;5071307;28;20668;-61
2024/02/28 00:21:52;;;;;;;9.50;7.40;;;7.40;94.70;;;;;;5071349;28;20314;-61
2024/02/28 00:24:18;;;;;;;12.40;8.13;;;7.40;94.80;;;;;;5071402;28;20174;-62
2024/02/28 00:26:44;;;;;;;8.17;6.53;;;7.50;94.40;;;;;;5071183;28;20193;-62
2024/02/28 00:29:10;;;;;;;10.27;6.60;;;7.40;94.40;;;;;;5070970;28;20291;-61
2024/02/28 00:31:35;;;;;;;10.85;7.30;;;7.40;94.30;;;;;;5071390;28;20183;-61
2024/02/28 00:34:01;;;;;;;9.67;6.87;;;7.40;94.40;;;;;;5071331;28;20181;-61
2024/02/28 00:36:27;;;;;;;12.40;7.83;;;7.50;94.20;;;;;;5072269;28;20190;-61
2024/02/28 00:38:52;;;;;;;14.30;7.90;;;7.40;94.10;;;;;;5075069;28;20408;-61
2024/02/28 00:41:18;;;;;;;13.13;8.50;;;7.50;94.10;;;;;;5075272;28;20173;-61
2024/02/28 00:43:44;;;;;;;11.87;7.73;;;7.50;94.20;;;;;;5075187;28;20601;-60
2024/02/28 00:46:11;;;;;;;7.60;5.73;;;7.60;94.20;;;;;;5075111;28;20744;-61
2024/02/28 00:48:38;;;;;;;8.45;6.22;;;7.60;94.20;;;;;;5074814;28;20247;-61
2024/02/28 00:51:04;;;;;;;11.82;8.45;;;7.60;93.90;;;;;;5075176;28;20822;-62
2024/02/28 00:53:30;;;;;;;8.98;5.90;;;7.70;93.60;;;;;;5074981;28;20169;-61
2024/02/28 00:55:56;;;;;;;8.30;5.83;;;7.60;93.60;;;;;;5074723;28;20751;-62
2024/02/28 00:58:21;;;;;;;12.70;7.77;;;7.60;93.60;;;;;;5074705;28;20207;-62
2024/02/28 01:00:50;;;;;;;10.07;6.30;;;7.60;93.10;;;;;;5074958;28;20215;-61
2024/02/28 01:03:18;;;;;;;7.50;6.70;;;7.40;93.20;;;;;;5074868;28;20220;-61
2024/02/28 01:05:44;;;;;;;11.13;6.68;;;7.50;93.30;;;;;;5074710;28;20172;-62
2024/02/28 01:08:09;;;;;;;12.13;6.93;;;7.50;93.30;;;;;;5074465;28;20741;-62
2024/02/28 01:10:36;;;;;;;14.53;5.20;;;7.50;93.20;;;;;;5074548;28;20178;-61
2024/02/28 01:13:02;;;;;;;11.35;6.45;;;7.50;93.20;;;;;;5074507;28;20183;-62
2024/02/28 01:15:27;;;;;;;10.10;6.37;;;7.50;93.20;;;;;;5074640;28;20171;-61
2024/02/28 01:17:53;;;;;;;11.13;6.60;;;7.40;93.30;;;;;;5074134;28;20502;-62
2024/02/28 01:20:19;;;;;;;9.83;6.83;;;7.30;93.40;;;;;;5074449;28;20270;-61
2024/02/28 01:22:44;;;;;;;7.83;6.23;;;7.20;93.60;;;;;;5074404;28;20181;-60
2024/02/28 01:25:10;;;;;;;11.13;5.97;;;7.10;93.70;;;;;;5074266;28;20182;-61
2024/02/28 01:27:36;;;;;;;10.47;6.37;;;7.00;93.70;;;;;;5074299;28;20199;-62
2024/02/28 01:30:02;;;;;;;9.80;6.30;;;6.90;93.80;;;;;;5074239;28;20205;-61
2024/02/28 01:32:29;;;;;;;10.90;7.18;;;6.90;94.00;;;;;;5074385;28;20598;-62
2024/02/28 01:34:55;;;;;;;9.48;6.63;;;6.90;94.10;;;;;;5074246;28;20554;-61
2024/02/28 01:37:20;;;;;;;8.73;7.90;;;6.80;93.90;;;;;;5073740;28;20197;-61
2024/02/28 01:39:46;;;;;;;15.13;7.83;;;6.80;94.10;;;;;;5074063;28;20255;-62
2024/02/28 01:42:11;;;;;;;8.97;5.90;;;6.70;94.10;;;;;;5074074;28;20199;-61
2024/02/28 01:44:44;;;;;;;12.20;7.97;;;6.60;94.10;;;;;;5074201;28;20198;-62
2024/02/28 01:47:10;;;;;;;10.07;8.05;;;6.60;94.10;;;;;;5073629;28;20208;-62
2024/02/28 01:49:36;;;;;;;7.57;5.68;;;6.50;94.20;;;;;;5073635;28;20278;-61
2024/02/28 01:52:03;;;;;;;11.77;6.27;;;6.60;94.40;;;;;;5073925;28;20189;-62
2024/02/28 01:54:30;;;;;;;8.57;6.00;;;6.60;94.10;;;;;;5073567;28;20437;-61
2024/02/28 01:56:57;;;;;;;13.70;7.22;;;6.60;94.00;;;;;;5073649;28;20611;-61
2024/02/28 01:59:26;;;;;;;8.73;6.43;;;6.50;94.10;;;;;;5073577;28;20185;-62
2024/02/28 02:01:51;;;;;;;10.50;6.45;;;6.60;94.30;;;;;;5073765;28;20250;-61
2024/02/28 02:04:17;;;;;;;10.73;6.83;;;6.60;94.30;;;;;;5073858;28;20584;-61
2024/02/28 02:06:47;;;;;;;11.90;7.40;;;6.60;94.20;;;;;;5073603;28;20193;-61
2024/02/28 02:09:13;;;;;;;12.20;8.20;;;6.50;94.30;;;;;;5073299;28;20606;-61
2024/02/28 02:11:39;;;;;;;8.90;8.00;;;6.50;94.20;;;;;;5073786;28;20180;-62
2024/02/28 02:14:05;;;;;;;10.88;6.63;;;6.40;94.50;;;;;;5073726;28;20978;-62
2024/02/28 02:16:30;;;;;;;13.27;7.50;;;6.40;94.50;;;;;;5073535;28;20192;-61
2024/02/28 02:18:57;;;;;;;10.70;6.73;;;6.40;94.30;;;;;;5073230;28;20657;-61
2024/02/28 02:21:32;;;;;;;7.57;5.03;;;6.30;94.40;;;;;;5073410;28;20181;-62
2024/02/28 02:23:57;;;;;;;11.88;8.18;;;6.30;94.60;;;;;;5073464;28;20548;-62
2024/02/28 02:26:23;;;;;;;6.73;5.17;;;6.30;94.60;;;;;;5073282;28;20194;-62
2024/02/28 02:28:48;;;;;;;9.80;6.23;;;6.30;94.50;;;;;;5072961;28;20198;-62
2024/02/28 02:31:14;;;;;;;8.13;6.40;;;6.30;94.60;;;;;;5073322;28;20244;-61
2024/02/28 02:33:40;;;;;;;7.93;7.10;;;6.40;94.60;;;;;;5073154;28;20166;-61
2024/02/28 02:36:06;;;;;;;8.67;6.40;;;6.30;94.50;;;;;;5072982;28;20463;-61
2024/02/28 02:38:31;;;;;;;8.73;6.60;;;6.30;94.50;;;;;;5072838;28;20179;-61
2024/02/28 02:40:57;;;;;;;9.40;7.13;;;6.30;94.50;;;;;;5073115;28;20209;-62
2024/02/28 02:43:23;;;;;;;9.07;6.80;;;6.30;94.40;;;;;;5072902;28;20173;-61
2024/02/28 02:45:48;;;;;;;15.97;7.20;;;6.40;94.40;;;;;;5072786;28;20169;-61
2024/02/28 02:48:14;;;;;;;8.87;6.50;;;6.40;94.40;;;;;;5072530;28;20222;-61
2024/02/28 02:50:39;;;;;;;11.50;7.33;;;6.30;94.50;;;;;;5072623;28;20197;-61
2024/02/28 02:53:09;;;;;;;11.90;7.17;;;6.20;94.30;;;;;;5072714;28;20167;-62
2024/02/28 02:55:34;;;;;;;6.95;4.90;;;6.20;94.60;;;;;;5072622;28;20165;-62
2024/02/28 02:58:00;;;;;;;9.13;6.93;;;6.30;94.70;;;;;;5072342;28;20181;-61
2024/02/28 03:00:26;;;;;;;6.50;5.70;;;6.20;94.30;;;;;;5072083;28;20671;-61
2024/02/28 03:02:51;;;;;;;10.40;6.23;;;6.10;94.20;;;;;;5072501;28;20394;-61
2024/02/28 03:05:17;;;;;;;12.77;6.77;;;6.10;94.30;;;;;;5072393;28;20166;-62
2024/02/28 03:07:43;;;;;;;8.07;5.80;;;6.00;94.50;;;;;;5072086;28;20601;-61
2024/02/28 03:10:10;;;;;;;8.80;6.03;;;6.00;94.60;;;;;;5072333;28;20208;-61
2024/02/28 03:12:36;;;;;;;10.20;5.85;;;6.10;94.80;;;;;;5072413;28;20740;-61
2024/02/28 03:15:02;;;;;;;11.70;7.63;;;6.00;94.50;;;;;;5072388;28;20175;-61
2024/02/28 03:17:28;;;;;;;8.50;5.72;;;6.00;94.60;;;;;;5071918;28;20684;-61
2024/02/28 03:19:54;;;;;;;10.67;5.80;;;5.90;94.60;;;;;;5072186;28;20185;-61
2024/02/28 03:22:20;;;;;;;5.07;4.60;;;5.80;94.80;;;;;;5072154;28;20413;-62
2024/02/28 03:24:46;;;;;;;7.47;5.13;;;5.80;95.30;;;;;;5072274;28;20444;-61
2024/02/28 03:27:11;;;;;;;10.87;5.57;;;5.70;95.10;;;;;;5070573;28;20288;-62
2024/02/28 03:29:37;;;;;;;7.83;5.30;;;5.60;95.20;;;;;;5071742;28;20210;-62
2024/02/28 03:32:03;;;;;;;6.90;4.60;;;5.60;95.30;;;;;;5070762;28;20175;-62
2024/02/28 03:34:29;;;;;;;8.75;5.20;;;5.60;95.40;;;;;;5071986;28;20256;-61
2024/02/28 03:36:55;;;;;;;5.53;4.40;;;5.50;95.30;;;;;;5071765;28;20197;-61
2024/02/28 03:39:21;;;;;;;10.10;5.83;;;5.50;95.50;;;;;;5071220;28;20610;-61
2024/02/28 03:41:46;;;;;;;4.83;3.53;;;5.50;95.60;;;;;;5071455;28;20169;-61
2024/02/28 03:44:12;;;;;;;9.87;6.07;;;5.40;95.50;;;;;;5071879;28;20268;-61
2024/02/28 03:46:37;;;;;;;9.07;4.97;;;5.30;95.80;;;;;;5071659;28;20220;-61
2024/02/28 03:49:03;;;;;;;8.60;5.70;;;5.30;95.90;;;;;;5071366;28;20204;-61
2024/02/28 03:51:32;;;;;;;9.80;5.37;;;5.20;95.90;;;;;;5071654;28;20162;-61
2024/02/28 03:53:58;;;;;;;6.20;4.80;;;5.20;96.10;;;;;;5071652;28;20173;-62
2024/02/28 03:56:24;;;;;;;12.37;8.33;;;5.20;96.40;;;;;;5071436;28;20205;-61
2024/02/28 03:58:51;;;;;;;5.47;4.90;;;5.20;96.50;;;;;;5071403;28;20166;-61
2024/02/28 04:01:16;;;;;;;7.53;6.10;;;5.20;96.40;;;;;;5071652;28;20678;-61
2024/02/28 04:03:42;;;;;;;7.00;5.30;;;5.20;96.40;;;;;;5071556;28;20174;-62
2024/02/28 04:06:08;;;;;;;7.63;6.10;;;5.20;96.50;;;;;;5071475;28;20238;-62
2024/02/28 04:08:33;;;;;;;5.90;5.40;;;5.20;96.50;;;;;;5071169;28;20285;-62
2024/02/28 04:10:59;;;;;;;6.80;5.07;;;5.20;96.50;;;;;;5071501;28;20223;-61
2024/02/28 04:13:24;;;;;;;6.90;3.90;;;5.20;96.50;;;;;;5071442;28;20204;-61
2024/02/28 04:15:50;;;;;;;7.53;5.07;;;5.20;96.40;;;;;;5071382;28;20223;-61
2024/02/28 04:18:16;;;;;;;7.57;4.97;;;5.10;96.50;;;;;;5071174;28;20177;-61
2024/02/28 04:20:41;;;;;;;7.50;5.50;;;5.10;96.50;;;;;;5071406;28;20201;-61
2024/02/28 04:23:07;;;;;;;10.33;6.07;;;4.90;96.60;;;;;;5071363;28;20182;-61
2024/02/28 04:25:34;;;;;;;7.63;4.23;;;4.70;96.80;;;;;;5071551;28;20247;-61
2024/02/28 04:27:59;;;;;;;7.85;4.55;;;4.70;97.10;;;;;;5070887;28;20170;-61
2024/02/28 04:30:25;;;;;;;6.80;4.60;;;4.60;97.30;;;;;;5071269;28;20246;-61
2024/02/28 04:32:50;;;;;;;8.00;5.20;;;4.60;97.50;;;;;;5071312;28;20176;-61
2024/02/28 04:35:18;;;;;;;8.87;5.53;;;4.60;97.80;;;;;;5071285;28;20209;-62
2024/02/28 04:37:47;;;;;;;7.25;4.90;;;4.60;97.70;;;;;;5070867;28;20659;-61
2024/02/28 04:40:13;;;;;;;6.72;4.65;;;4.60;97.70;;;;;;5071316;28;20250;-61
2024/02/28 04:42:39;;;;;;;8.27;5.30;;;4.60;97.80;;;;;;5071486;28;20749;-62
2024/02/28 04:45:06;;;;;;;4.63;4.07;;;4.60;97.70;;;;;;5071220;28;20177;-62
2024/02/28 04:47:31;;;;;;;10.73;5.70;;;4.50;97.90;;;;;;5070789;28;20194;-61
2024/02/28 04:49:57;;;;;;;6.10;4.73;;;4.60;98.00;;;;;;5071009;28;20205;-61
2024/02/28 04:52:24;;;;;;;6.47;5.53;;;4.60;97.90;;;;;;5070966;28;20162;-61
2024/02/28 04:54:50;;;;;;;9.98;5.03;;;4.60;97.80;;;;;;5069832;28;20420;-62
2024/02/28 04:57:16;;;;;;;8.35;7.35;;;4.60;97.90;;;;;;5070549;28;20201;-61
2024/02/28 04:59:43;;;;;;;8.67;5.80;;;4.50;97.90;;;;;;5070967;28;20170;-61
2024/02/28 05:02:09;;;;;;;10.05;6.60;;;4.50;98.00;;;;;;5071003;28;20558;-61
2024/02/28 05:04:35;;;;;;;9.10;4.73;;;4.60;98.20;;;;;;5070859;28;20207;-62
2024/02/28 05:07:00;;;;;;;12.73;5.23;;;4.60;98.20;;;;;;5070864;28;20189;-62
2024/02/28 05:09:26;;;;;;;7.40;5.57;;;4.70;98.10;;;;;;5070700;28;20201;-61
2024/02/28 05:11:51;;;;;;;8.93;6.10;;;4.70;98.00;;;;;;5070900;28;20174;-61
2024/02/28 05:14:17;;;;;;;10.90;6.07;;;4.70;97.90;;;;;;5070961;28;20169;-61
2024/02/28 05:16:43;;;;;;;9.53;5.77;;;4.80;97.80;;;;;;5070741;28;20593;-61
2024/02/28 05:19:09;;;;;;;6.67;4.80;;;4.80;97.80;;;;;;5070590;28;20206;-61
2024/02/28 05:21:42;;;;;;;7.63;5.90;;;4.80;97.60;;;;;;5060529;28;20590;-62
2024/02/28 05:24:08;;;;;;;6.30;4.82;;;4.70;97.70;;;;;;5054325;28;20174;-61
2024/02/28 05:26:35;;;;;;;12.27;6.20;;;4.80;97.90;;;;;;5054405;28;20260;-61
2024/02/28 05:29:02;;;;;;;6.22;5.13;;;4.90;97.80;;;;;;5054147;28;20283;-61
2024/02/28 05:31:28;;;;;;;6.32;4.32;;;4.80;97.50;;;;;;5053018;28;20589;-61
2024/02/28 05:33:56;;;;;;;6.27;4.47;;;4.70;97.60;;;;;;5054171;28;20229;-61
2024/02/28 05:36:26;;;;;;;9.98;6.38;;;4.70;97.80;;;;;;5054377;28;20857;-61
2024/02/28 05:38:53;;;;;;;8.57;6.25;;;4.70;97.90;;;;;;5053889;28;20672;-61
2024/02/28 05:41:19;;;;;;;6.03;4.72;;;4.70;97.80;;;;;;5054131;28;20179;-62
2024/02/28 05:43:45;;;;;;;6.00;5.10;;;4.70;97.90;;;;;;5054052;28;20178;-61
2024/02/28 05:46:11;;;;;;;4.57;3.67;;;4.60;97.80;;;;;;5053925;28;20614;-61
2024/02/28 05:48:37;;;;;;;15.37;10.43;;;4.70;97.90;;;;;;5053731;28;20299;-62
2024/02/28 05:51:03;;;;;;;20.77;14.50;;;4.80;98.00;;;;;;5053933;28;20303;-61
2024/02/28 05:53:35;;;;;;;15.23;12.30;;;4.70;97.80;;;;;;5054175;28;20261;-62
2024/02/28 05:56:13;;;;;;;11.35;7.50;;;4.60;97.90;;;;;;5053698;28;20290;-61
2024/02/28 05:58:39;;;;;;;11.73;6.90;;;4.70;98.00;;;;;;5053655;28;20185;-61
2024/02/28 06:01:05;;;;;;;10.82;7.20;;;4.80;98.00;;;;;;5053715;28;20588;-61
2024/02/28 06:03:30;;;;;;;8.30;5.00;;;4.80;97.90;;;;;;5053706;28;20204;-61
2024/02/28 06:05:57;;;;;;;6.80;5.90;;;4.80;97.70;;;;;;5067650;28;20204;-62
2024/02/28 06:08:23;;;;;;;8.88;4.95;;;4.80;97.90;;;;;;5073380;28;20205;-61
2024/02/28 06:10:49;;;;;;;7.27;5.20;;;4.80;97.90;;;;;;5073850;28;20534;-62
2024/02/28 06:13:14;;;;;;;9.70;5.90;;;4.90;97.70;;;;;;5073480;28;20177;-61
2024/02/28 06:15:40;;;;;;;8.90;5.20;;;4.90;97.70;;;;;;5073401;28;20699;-61
2024/02/28 06:18:06;;;;;;;10.50;6.80;;;4.80;97.50;;;;;;5073236;28;20170;-61
2024/02/28 06:20:31;;;;;;;6.50;5.67;;;4.70;97.90;;;;;;5073482;28;20166;-61
2024/02/28 06:22:57;;;;;;;8.53;6.43;;;4.80;98.10;;;;;;5073539;28;20197;-61
2024/02/28 06:25:23;;;;;;;6.17;4.10;;;4.90;97.80;;;;;;5073393;28;20176;-61
2024/02/28 06:27:49;;;;;;;6.65;5.00;;;5.00;97.50;;;;;;5072871;28;20235;-62
2024/02/28 06:30:16;;;;;;;6.17;4.93;;;5.00;97.40;;;;;;5073132;28;20218;-61
2024/02/28 06:32:42;;;;;;;5.88;4.78;;;5.00;97.50;;;;;;5073178;28;20190;-61
2024/02/28 06:35:09;;;;;;;7.77;5.70;;;4.90;97.50;;;;;;5072285;28;20198;-61
2024/02/28 06:37:35;;;;;;;6.70;4.82;;;4.90;97.70;;;;;;5072781;28;20656;-61
2024/02/28 06:40:03;;;;;;;7.00;6.17;;;4.90;97.80;;;;;;5073068;28;20176;-60
2024/02/28 06:42:29;;;;;;;10.38;5.53;;;4.90;97.90;;;;;;5072877;28;20407;-61
2024/02/28 06:44:55;;;;;;;6.40;4.50;;;5.00;97.70;;;;;;5073133;28;20216;-62
2024/02/28 06:47:21;;;;;;;7.17;5.80;;;5.00;97.90;;;;;;5072569;28;20442;-62
2024/02/28 06:49:47;;;;;;;10.00;6.50;;;5.20;98.10;;;;;;5072816;28;20224;-62
2024/02/28 06:52:14;;;;;;;9.23;6.27;;;5.20;97.80;;;;;;5072717;28;20197;-61
2024/02/28 06:54:39;;;;;;;11.25;6.97;;;5.00;98.30;;;;;;5072753;28;20169;-61
2024/02/28 06:57:05;;;;;;;10.90;5.67;;;5.10;98.20;;;;;;5072325;28;20342;-62
2024/02/28 06:59:31;;;;;;;8.17;4.67;;;5.20;98.20;;;;;;5072390;28;20581;-61
2024/02/28 07:01:57;;;;;;;6.70;5.22;;;5.40;98.20;;;;;;5072761;28;20177;-62
2024/02/28 07:04:22;;;;;;;10.83;6.57;;;5.60;97.80;;;;;;5072602;28;20557;-61
2024/02/28 07:06:48;;;;;;;8.83;5.40;;;5.70;97.30;;;;;;5072478;28;20478;-62
2024/02/28 07:09:15;;;;;;;7.13;5.80;;;5.70;97.20;;;;;;5070892;28;20201;-61
2024/02/28 07:11:40;;;;;;;9.32;5.68;;;5.70;97.10;;;;;;5072274;28;20169;-61
2024/02/28 07:14:07;;;;;;;7.93;5.07;;;5.70;97.20;;;;;;5072395;28;20224;-61
2024/02/28 07:16:34;;;;;;;8.48;5.53;;;5.60;97.30;;;;;;5054592;28;20202;-61
2024/02/28 07:19:02;;;;;;;12.65;6.43;;;5.80;97.40;;;;;;5032125;28;20171;-61
2024/02/28 07:21:30;;;;;;;6.47;4.70;;;6.00;97.10;;;;;;5030986;28;20182;-62
2024/02/28 07:23:56;;;;;;;8.20;5.60;;;6.10;96.50;;;;;;5032194;28;20201;-62
2024/02/28 07:26:21;;;;;;;7.20;6.33;;;6.10;96.40;;;;;;5032011;28;20225;-62
2024/02/28 07:28:49;;;;;;;9.07;5.97;;;6.30;96.60;;;;;;5031776;28;20491;-61
2024/02/28 07:31:18;;;;;;;6.50;5.65;;;6.30;95.90;;;;;;5032194;28;20272;-63
2024/02/28 07:33:44;;;;;;;12.70;7.30;;;6.50;95.80;;;;;;5032005;28;20175;-63
2024/02/28 07:36:10;;;;;;;8.90;6.40;;;6.60;95.60;;;;;;5031931;28;20244;-63
2024/02/28 07:38:36;;;;;;;9.50;7.20;;;6.60;95.50;;;;;;5031663;28;20417;-62
2024/02/28 07:41:01;;;;;;;8.43;6.37;;;6.70;95.40;;;;;;5031858;28;20327;-62
2024/02/28 07:43:28;;;;;;;7.80;5.40;;;6.80;95.50;;;;;;5031813;28;20513;-62
2024/02/28 07:45:54;;;;;;;10.35;7.05;;;7.00;95.30;;;;;;5031712;28;20209;-62
2024/02/28 07:48:20;;;;;;;5.80;4.57;;;7.10;95.20;;;;;;5031605;28;20367;-62
2024/02/28 07:50:46;;;;;;;7.10;5.50;;;7.30;95.00;;;;;;5031775;28;20417;-62
2024/02/28 07:53:15;;;;;;;14.57;6.72;;;7.40;94.80;;;;;;5031284;28;20257;-62
2024/02/28 07:55:41;;;;;;;13.00;7.30;;;7.50;94.60;;;;;;5031528;28;20543;-63
2024/02/28 07:58:06;;;;;;;8.60;5.63;;;7.60;94.90;;;;;;5031437;28;20170;-63
2024/02/28 08:00:35;;;;;;;7.37;5.50;;;7.80;94.30;;;;;;5063187;22;20222;-59
2024/02/28 08:03:01;;;;;;;9.43;7.03;;;8.10;94.10;;;;;;5051319;28;20554;-59
2024/02/28 08:05:27;;;;;;;8.63;6.75;;;8.20;93.30;;;;;;5051474;28;20178;-59
2024/02/28 08:07:53;;;;;;;12.23;6.27;;;8.30;93.10;;;;;;5051163;28;20241;-58
2024/02/28 08:10:19;;;;;;;9.00;6.33;;;8.70;93.40;;;;;;5051153;28;20463;-58
2024/02/28 08:12:44;;;;;;;9.60;6.00;;;9.00;93.40;;;;;;5050812;28;20173;-58
2024/02/28 08:15:10;;;;;;;9.33;6.10;;;9.20;91.50;;;;;;5051385;28;20466;-58
2024/02/28 08:17:36;;;;;;;7.87;6.17;;;9.50;91.40;;;;;;5051098;28;20167;-58
2024/02/28 08:20:04;;;;;;;9.68;5.63;;;9.80;90.80;;;;;;5051099;28;20435;-58
2024/02/28 08:22:30;;;;;;;5.80;5.20;;;10.30;90.00;;;;;;5051826;28;20178;-58
2024/02/28 08:24:56;;;;;;;9.43;5.60;;;10.80;86.50;;;;;;5051272;28;20182;-58
2024/02/28 08:27:23;;;;;;;7.60;5.00;;;10.70;83.50;;;;;;5051164;28;20419;-58
2024/02/28 08:29:49;;;;;;;7.20;4.83;;;10.60;83.90;;;;;;5051089;28;20727;-58
2024/02/28 08:32:15;;;;;;;7.10;5.57;;;10.50;84.70;;;;;;5051439;28;20744;-58
2024/02/28 08:34:44;;;;;;;7.50;5.43;;;10.40;83.90;;;;;;5051156;28;20428;-58
2024/02/28 08:37:10;;;;;;;7.20;5.50;;;10.50;85.00;;;;;;5050877;28;20190;-58
2024/02/28 08:39:36;;;;;;;8.10;5.13;;;10.60;84.90;;;;;;5050840;28;20408;-58
2024/02/28 08:42:02;;;;;;;6.63;5.30;;;10.60;84.00;;;;;;5050718;28;20443;-60
2024/02/28 08:44:27;;;;;;;10.37;5.40;;;10.50;83.20;;;;;;5035184;28;20606;-59
2024/02/28 08:46:53;;;;;;;7.40;5.80;;;10.20;83.70;;;;;;5031103;28;20174;-59
2024/02/28 08:49:18;;;;;;;8.63;6.10;;;10.20;84.70;;;;;;5036349;28;20217;-59
2024/02/28 08:51:47;;;;;;;6.73;5.00;;;10.80;84.20;;;;;;5050899;28;20166;-60
2024/02/28 08:54:12;;;;;;;6.80;5.33;;;11.50;82.00;;;;;;5050945;28;20253;-60
2024/02/28 08:56:38;;;;;;;5.43;4.90;;;12.60;79.10;;;;;;5050813;28;20487;-60
2024/02/28 08:59:04;;;;;;;8.37;5.90;;;13.30;76.00;;;;;;5052981;28;20804;-60
2024/02/28 09:01:29;;;;;;;7.90;4.87;;;13.70;74.20;;;;;;5054739;28;20221;-60
2024/02/28 09:03:55;;;;;;;6.03;5.40;;;13.70;72.50;;;;;;5054577;28;20170;-60
2024/02/28 09:06:20;;;;;;;5.47;4.63;;;13.70;72.70;;;;;;5054672;28;20170;-60
2024/02/28 09:08:46;;;;;;;7.17;5.10;;;13.60;70.70;;;;;;5054355;28;20197;-60
2024/02/28 09:11:12;;;;;;;6.30;5.70;;;13.10;70.80;;;;;;5054583;28;20861;-60
2024/02/28 09:13:38;;;;;;;6.03;5.43;;;13.00;72.60;;;;;;5054160;28;20189;-59
2024/02/28 09:16:03;;;;;;;5.97;5.37;;;13.10;73.20;;;;;;5053776;28;20413;-59
2024/02/28 09:18:29;;;;;;;6.90;4.50;;;13.60;71.50;;;;;;5053815;28;20678;-60
2024/02/28 09:20:55;;;;;;;5.57;4.30;;;14.20;71.00;;;;;;5054313;28;20292;-60
2024/02/28 09:23:21;;;;;;;6.83;5.53;;;14.80;68.70;;;;;;5054536;28;20539;-60
2024/02/28 09:25:46;;;;;;;5.77;5.07;;;14.60;66.80;;;;;;5036382;28;20174;-60
2024/02/28 09:28:14;;;;;;;5.97;4.70;;;14.30;67.90;;;;;;5054196;28;20220;-59
2024/02/28 09:30:40;;;;;;;8.83;6.37;;;13.90;68.20;;;;;;5054409;28;20252;-60
2024/02/28 09:33:06;;;;;;;6.30;4.87;;;13.80;68.20;;;;;;5054290;28;20906;-60
2024/02/28 09:35:31;;;;;;;6.17;4.47;;;14.20;68.80;;;;;;5054135;28;20174;-60
2024/02/28 09:37:57;;;;;;;8.17;6.27;;;15.10;66.50;;;;;;5053893;28;20421;-60
2024/02/28 09:40:23;;;;;;;5.30;4.80;;;15.80;64.20;;;;;;5054038;28;20203;-60
2024/02/28 09:43:02;;;;;;;6.63;4.70;;;16.50;63.90;;;;;;5054138;28;20185;-60
2024/02/28 09:45:32;;;;;;;5.63;5.03;;;17.40;59.30;;;;;;5054261;28;20184;-60
2024/02/28 09:48:01;;;;;;;6.77;5.33;;;18.20;58.10;;;;;;5053796;28;20744;-60
2024/02/28 09:50:27;;;;;;;7.30;5.07;;;19.10;56.00;;;;;;5053913;28;20407;-59
2024/02/28 09:52:53;;;;;;;5.40;4.90;;;19.80;54.20;;;;;;5053876;28;20403;-60
2024/02/28 09:55:20;;;;;;;6.07;5.27;;;20.00;52.30;;;;;;5053298;28;20375;-60
2024/02/28 09:57:48;;;;;;;6.30;4.73;;;20.60;50.80;;;;;;5053225;28;20439;-60
2024/02/28 10:00:17;;;;;;;5.83;5.30;;;20.40;50.50;;;;;;5053584;28;20454;-60
2024/02/28 10:02:44;;;;;;;6.23;5.13;;;20.50;49.60;;;;;;5053586;28;20812;-60
2024/02/28 10:05:10;;;;;;;7.10;5.70;;;20.40;49.30;;;;;;5053690;28;20542;-60
2024/02/28 10:07:36;;;;;;;7.07;6.27;;;19.90;49.30;;;;;;5053575;28;20780;-59
2024/02/28 10:10:01;;;;;;;9.63;5.87;;;18.80;49.30;;;;;;5053289;28;20722;-59
2024/02/28 10:12:27;;;;;;;9.00;5.93;;;17.70;51.20;;;;;;5053338;28;20248;-60
2024/02/28 10:14:53;;;;;;;6.70;4.87;;;17.20;52.30;;;;;;5051543;28;20174;-59
2024/02/28 10:17:18;;;;;;;8.93;6.80;;;16.50;53.40;;;;;;5052968;28;20210;-59
2024/02/28 10:19:44;;;;;;;6.77;5.30;;;15.80;54.10;;;;;;5052888;28;20196;-59
2024/02/28 10:22:09;;;;;;;5.77;4.00;;;15.10;55.80;;;;;;5053132;28;20543;-59
2024/02/28 10:24:37;;;;;;;6.57;4.70;;;14.50;56.70;;;;;;5053325;28;20178;-59
2024/02/28 10:27:03;;;;;;;6.70;5.30;;;14.30;58.40;;;;;;5053255;28;20170;-59
2024/02/28 10:29:29;;;;;;;5.93;5.33;;;14.10;58.60;;;;;;5052888;28;20458;-59
2024/02/28 10:31:58;;;;;;;8.30;5.97;;;13.80;59.00;;;;;;5053313;28;20412;-59
2024/02/28 10:34:24;;;;;;;7.03;5.63;;;13.40;60.70;;;;;;5053228;28;20197;-60
2024/02/28 10:36:50;;;;;;;5.77;4.80;;;13.10;60.90;;;;;;5053244;28;20918;-60
2024/02/28 10:39:15;;;;;;;6.33;5.67;;;13.10;61.10;;;;;;5052856;28;20186;-59
2024/02/28 10:41:42;;;;;;;4.90;4.37;;;13.20;61.00;;;;;;5052878;28;20432;-59
2024/02/28 10:44:12;;;;;;;6.07;4.33;;;13.10;60.20;;;;;;5052933;28;20203;-59
2024/02/28 10:46:39;;;;;;;6.03;4.73;;;12.90;61.50;;;;;;5052895;28;20412;-59
2024/02/28 10:49:05;;;;;;;6.90;4.97;;;12.60;62.70;;;;;;5052743;28;20836;-59
2024/02/28 10:51:36;;;;;;;7.30;4.90;;;12.60;63.80;;;;;;5052431;28;20503;-59
2024/02/28 10:54:11;;;;;;;6.23;4.53;;;12.60;63.70;;;;;;5052310;28;20921;-59
2024/02/28 10:56:38;;;;;;;5.10;4.63;;;12.50;63.60;;;;;;5052582;28;20452;-59
2024/02/28 10:59:10;;;;;;;6.40;5.17;;;12.60;64.10;;;;;;5052409;28;20420;-59
2024/02/28 11:01:43;;;;;;;5.73;4.90;;;12.60;63.30;;;;;;5052443;28;20452;-59
2024/02/28 11:04:11;;;;;;;6.60;4.70;;;12.60;64.20;;;;;;5052650;28;20416;-59
2024/02/28 11:06:51;;;;;;;5.40;4.13;;;12.40;63.60;;;;;;5052514;28;20401;-59
2024/02/28 11:09:30;;;;;;;5.83;5.13;;;12.20;63.70;;;;;;5052160;28;20905;-59
2024/02/28 11:11:56;;;;;;;7.30;5.23;;;12.10;64.40;;;;;;5052491;28;20451;-59
2024/02/28 11:14:24;;;;;;;6.87;5.80;;;12.10;65.30;;;;;;5052429;28;20404;-59
2024/02/28 11:17:03;;;;;;;8.00;5.67;;;12.20;65.10;;;;;;5052348;28;20846;-59
2024/02/28 11:19:31;;;;;;;4.80;4.30;;;12.00;65.30;;;;;;5051907;28;20946;-59
2024/02/28 11:21:58;;;;;;;4.47;4.03;;;12.10;65.70;;;;;;5051863;28;20412;-59
2024/02/28 11:24:25;;;;;;;5.57;4.60;;;12.20;65.20;;;;;;5052488;28;20437;-60
2024/02/28 11:26:52;;;;;;;5.67;4.67;;;12.60;63.80;;;;;;5052121;28;20499;-59
2024/02/28 11:29:26;;;;;;;6.00;4.70;;;12.90;65.80;;;;;;5051825;28;20436;-59
2024/02/28 11:31:52;;;;;;;8.20;6.50;;;13.20;63.80;;;;;;5052188;28;20412;-59
2024/02/28 11:34:18;;;;;;;5.73;4.67;;;13.50;62.10;;;;;;5052064;28;20408;-59
2024/02/28 11:36:48;;;;;;;7.17;4.30;;;13.50;61.90;;;;;;5051953;28;20475;-60
2024/02/28 11:39:14;;;;;;;4.90;4.40;;;13.40;62.60;;;;;;5051357;28;20410;-60
2024/02/28 11:41:39;;;;;;;7.93;5.10;;;13.30;63.40;;;;;;5051113;28;21023;-59
2024/02/28 11:44:05;;;;;;;5.43;4.80;;;13.10;61.60;;;;;;5052079;28;20228;-59
2024/02/28 11:46:32;;;;;;;6.67;4.10;;;13.00;62.30;;;;;;5052063;28;20273;-60
2024/02/28 11:48:57;;;;;;;5.93;4.37;;;13.00;63.30;;;;;;5051559;28;20451;-60
2024/02/28 11:51:23;;;;;;;6.40;4.53;;;13.00;63.40;;;;;;5051922;28;20517;-60
2024/02/28 11:53:49;;;;;;;5.60;4.23;;;13.00;63.80;;;;;;5051833;28;20201;-59
2024/02/28 11:56:17;;;;;;;7.57;6.50;;;12.90;63.70;;;;;;5051866;28;20167;-59
2024/02/28 11:58:52;;;;;;;13.13;7.47;;;12.80;65.60;;;;;;5051450;28;20215;-59
2024/02/28 12:01:19;;;;;;;6.80;5.83;;;12.80;66.50;;;;;;5051467;28;20444;-60
2024/02/28 12:03:48;;;;;;;6.70;5.57;;;12.70;66.90;;;;;;5051809;28;20427;-59
2024/02/28 12:06:15;;;;;;;6.60;4.90;;;12.50;67.00;;;;;;5051513;28;20405;-59
2024/02/28 12:08:40;;;;;;;6.13;5.33;;;12.40;68.00;;;;;;5033689;28;20448;-60
2024/02/28 12:11:08;;;;;;;7.70;5.67;;;12.40;68.60;;;;;;5051508;28;20424;-59
2024/02/28 12:13:33;;;;;;;5.93;4.73;;;12.30;68.20;;;;;;5051501;28;20167;-59
2024/02/28 12:16:01;;;;;;;6.33;4.90;;;12.50;68.50;;;;;;5051318;28;20506;-60
2024/02/28 12:18:28;;;;;;;5.30;4.50;;;12.60;67.10;;;;;;5051164;28;20170;-59
2024/02/28 12:20:54;;;;;;;7.73;5.37;;;12.40;69.40;;;;;;5051433;28;20889;-59
2024/02/28 12:23:19;;;;;;;5.70;4.63;;;12.30;67.80;;;;;;5051412;28;20444;-60
2024/02/28 12:25:45;;;;;;;3.93;3.40;;;12.10;68.80;;;;;;5051502;28;20769;-60
2024/02/28 12:28:11;;;;;;;6.03;4.40;;;11.90;66.30;;;;;;5051203;28;20201;-59
2024/02/28 12:30:44;;;;;;;5.73;3.97;;;11.60;68.00;;;;;;5051305;28;20783;-59
2024/02/28 12:33:13;;;;;;;4.63;4.20;;;11.30;71.10;;;;;;5054107;28;20401;-59
2024/02/28 12:35:41;;;;;;;4.67;3.63;;;11.40;70.60;;;;;;5055506;28;20777;-59
2024/02/28 12:38:07;;;;;;;4.70;3.87;;;11.50;68.80;;;;;;5055293;28;20405;-59
2024/02/28 12:40:32;;;;;;;3.93;3.60;;;11.80;68.30;;;;;;5055602;28;20758;-59
2024/02/28 12:42:58;;;;;;;2.90;2.57;;;12.10;65.90;;;;;;5055216;28;20169;-59
2024/02/28 12:45:24;;;;;;;3.30;2.87;;;12.10;62.40;;;;;;5055247;28;20177;-59